Aérodrome :
LOGIN :

S'inscrire | Disclaimer

   EN    FR    IT 

 










Légende :    VFR   VFR Marginal   IFR   IFR Intensif   IFR Très Intensif
Visi : 
Plafond : 
>= 8 km
>= 3000ft
5 à 8 km
1000 à 3000 ft
1500m à 5 km
500 à 1000 ft
800 à 1500m
200 à 500 ft
< 800m
< 200 ft
Symboles :   Orages  Brouillard  Fortes neiges  Fortes précipitations  Vent > 20 kt
SIGMETs :   Divers  Orages  Givrage  Turbulence  Onde Orograph.  Cendres Volcan.







- Altitude de l'aérodrome : 844 ft
- Code IATA : OSR


LKMT - Ostrava-Mosnov

DERNIER METAR :
  • 221600Z 07014KT 050V110 CAVOK 17/01 Q1015 NOSIG

METARs EXPIRÉS :
  • 221530Z 07012KT CAVOK 17/02 Q1015 NOSIG
  • 221500Z 07012KT 040V100 CAVOK 18/04 Q1015 NOSIG
  • 221430Z 07013KT CAVOK 17/04 Q1015 NOSIG
  • 221400Z 09012KT 9999 FEW059 17/03 Q1015 NOSIG
  • 221330Z 09013KT 060V120 CAVOK 17/03 Q1015 NOSIG

TAF TAF LKMT
Valide du 22 à 12h jusqu'au 23 à 18h UTC


221100Z 2212/2318 05010KT CAVOK
TEMPO 2212/2217 08014G28KT 9999 -SHRA SCT035
BECMG 2221/2300 9999 BKN030
BECMG 2308/2310 16010KT
TEMPO 2310/2316 18014G26KT
Pas de NOTAMs connus pour ce terrain.



MET'MAP, la Météo Aéronautique d'un coup d'oeil ! - Copyright ORBIFLY Décembre 2007 - Disclaimer

ORBIFLY MET'MAP TEAM :

Programmation & Développement : Alexandra Zaïnal
Conception & Développement : Baudouin d'Aumeries
Co-Programmation & Développement : Marc-Olivier Méhu
Soutien technique & logistique : Manuel Goepfert

Contact : metmap@orbifly.com




SOURCES & CREDITS :

   NOAA